Αρχική σελίδα
METAR-TAF:

METAR-TAF

Αεροδρόμια :

Searle Field

Ogallala, Νεμπράσκα, Ηνωμένες Πολιτείες Αμερικής

γεωγραφικό πλάτος: 41-07-11N, γεωγραφικό μήκος: 101-46-08W, υψόμετρο: 999 μ

Παρών καιρός

Η αναφορά έγινε 22 λεπτά πριν, στις 15:37 UTC
Άνεμος 6 kt από
Θερμοκρασία -14°C
Υγρασία 66%
Πίεση 1028 hPa
Ορατότητα: 16.1 χλμ
Αρκετά νέφη σε ύψος 6000 πόδια
Νεφοσκεπής σε ύψος 8000 πόδια

METAR: KOGA 181537Z AUTO 32006KT 10SM BKN060 OVC080 M14/M19 A3037 RMK AO2

Χρόνος: 08:59 (15:59 UTC)


TAF: λείπει

Μετεωρολογικές αναφορές και προγνώσεις για περισσότερα από 4000 αεροδρόμια (δελτία METAR και TAF).

Οι διαθέσιμοι σταθμοί απεικονίζονται στο χάρτη με κίτρινες και κόκκινες κουκκίδες.

Μετακινήστε το ποντίκι πάνω από τις κουκκίδες για να δείτε το όνομα του σταθμού.

Στη συνέχεια, κάντε κλικ για να δείτε τις μετεωρολογικές αναφορές και τις προγνώσεις καιρού.

Για να αλλάξετε το χάρτη: κάντε κλικ στα πράσινα κουμπιά με τον μαύρο σταυρό για να ζουμάρετε, στο πράσινο κουμπί με την παύλα για να αφαιρέσετε το ζουμ ή στα πράσινα βέλη για να αντιπαραβάλλετε χάρτες.


METAR-TAF: